Time;durP1;ratioP1;P1;durP2;ratioP2;P2;SDS_P1;SDS_P2;PMS_P1;PMS_P2;Temp;Humidity;BMP_temperature;BMP_pressure;BME280_temperature;BME280_humidity;BME280_pressure;Samples;Min_cycle;Max_cycle;Signal;HPM_P1;HPM_P2
2021/06/15 00:00:12;;;;;;;11.20;1.53;;;16.00;79.50;;;;;;5035478;28;20055;-75
2021/06/15 00:02:39;;;;;;;8.87;2.03;;;16.00;79.30;;;;;;5051272;28;20100;-75
2021/06/15 00:05:06;;;;;;;8.63;1.73;;;16.00;79.00;;;;;;5051076;28;20134;-75
2021/06/15 00:07:31;;;;;;;7.93;1.80;;;16.00;79.00;;;;;;5050570;28;20090;-76
2021/06/15 00:09:57;;;;;;;6.73;2.20;;;15.90;79.10;;;;;;5050956;28;20057;-75
2021/06/15 00:12:23;;;;;;;7.40;1.53;;;15.90;80.40;;;;;;5050314;28;20144;-76
2021/06/15 00:14:49;;;;;;;6.10;1.93;;;15.90;79.40;;;;;;5051289;28;20057;-76
2021/06/15 00:17:14;;;;;;;10.10;2.07;;;15.80;80.00;;;;;;5050571;28;20535;-75
2021/06/15 00:19:40;;;;;;;7.23;1.73;;;15.90;79.70;;;;;;5050414;28;20053;-75
2021/06/15 00:22:06;;;;;;;3.97;1.17;;;15.80;79.60;;;;;;5050776;28;20049;-75
2021/06/15 00:24:42;;;;;;;9.30;1.63;;;15.80;79.80;;;;;;5050679;28;20559;-76
2021/06/15 00:27:11;;;;;;;7.97;1.33;;;15.80;79.90;;;;;;5050117;28;20061;-76
2021/06/15 00:29:37;;;;;;;8.83;1.40;;;15.80;80.00;;;;;;5050968;28;20041;-76
2021/06/15 00:32:04;;;;;;;10.83;1.37;;;15.90;79.80;;;;;;5050463;28;20059;-75
2021/06/15 00:34:30;;;;;;;8.77;1.63;;;15.80;79.70;;;;;;5050497;28;20045;-76
2021/06/15 00:36:57;;;;;;;9.23;1.57;;;15.70;79.80;;;;;;5050935;28;20061;-75
2021/06/15 00:39:35;;;;;;;10.33;1.57;;;15.70;79.90;;;;;;5050815;28;20053;-76
2021/06/15 00:42:00;;;;;;;5.93;1.40;;;15.70;79.90;;;;;;5050053;28;20179;-75
2021/06/15 00:44:26;;;;;;;9.83;1.20;;;15.70;80.10;;;;;;5050962;28;20072;-75
2021/06/15 00:46:52;;;;;;;6.77;1.20;;;15.60;80.10;;;;;;5051055;28;20477;-75
2021/06/15 00:49:24;;;;;;;10.50;1.53;;;15.60;80.10;;;;;;5050010;28;20511;-76
2021/06/15 00:51:50;;;;;;;6.43;1.17;;;15.60;80.20;;;;;;5050827;28;20065;-75
2021/06/15 00:54:15;;;;;;;8.10;1.53;;;15.50;80.30;;;;;;5050212;28;20138;-76
2021/06/15 00:56:41;;;;;;;6.20;1.50;;;15.40;80.40;;;;;;5049945;28;20559;-75
2021/06/15 00:59:07;;;;;;;9.90;1.70;;;15.40;80.60;;;;;;5050297;28;20065;-76
2021/06/15 01:01:32;;;;;;;10.07;1.47;;;15.30;80.90;;;;;;5050046;28;20053;-76
2021/06/15 01:03:59;;;;;;;9.33;2.00;;;15.30;81.10;;;;;;5050479;28;20106;-75
2021/06/15 01:06:39;;;;;;;10.40;1.90;;;15.20;81.40;;;;;;5050496;28;20060;-75
2021/06/15 01:09:48;;;;;;;8.47;1.10;;;15.20;81.80;;;;;;5049755;28;20332;-76
2021/06/15 01:12:54;;;;;;;12.37;2.03;;;15.20;81.80;;;;;;5053769;28;20486;-75
2021/06/15 01:15:27;;;;;;;6.33;1.30;;;15.20;81.70;;;;;;5053661;28;20110;-75
2021/06/15 01:17:58;;;;;;;8.43;1.73;;;15.20;81.50;;;;;;5053627;28;20045;-75
2021/06/15 01:20:46;;;;;;;12.77;1.42;;;15.10;81.70;;;;;;5054164;28;20049;-75
2021/06/15 01:23:41;;;;;;;10.43;2.17;;;15.10;82.20;;;;;;5052587;28;20049;-75
2021/06/15 01:26:32;;;;;;;13.07;1.57;;;15.00;82.60;;;;;;5053886;28;20049;-76
2021/06/15 01:29:02;;;;;;;11.88;1.45;;;15.10;82.40;;;;;;5053731;28;20407;-75
2021/06/15 01:31:33;;;;;;;12.70;1.90;;;15.00;82.30;;;;;;5053182;28;20048;-75
2021/06/15 01:34:04;;;;;;;;;;;15.00;82.50;;;;;;5053688;28;20074;-76
2021/06/15 01:36:38;;;;;;;7.07;1.20;;;15.00;82.80;;;;;;5053507;28;19925;-75
2021/06/15 01:39:15;;;;;;;9.83;1.57;;;15.00;82.60;;;;;;5053110;28;20509;-75
2021/06/15 01:41:48;;;;;;;10.17;1.73;;;15.00;82.90;;;;;;5053477;28;20410;-75
2021/06/15 01:44:17;;;;;;;15.40;1.90;;;15.00;83.00;;;;;;5052494;28;20497;-75
2021/06/15 01:47:03;;;;;;;10.27;1.63;;;15.10;83.10;;;;;;5053290;28;20490;-75
2021/06/15 01:49:52;;;;;;;9.90;1.30;;;15.10;82.90;;;;;;5053424;28;20075;-75
2021/06/15 01:52:21;;;;;;;9.17;1.37;;;15.10;82.70;;;;;;5052247;28;20509;-75
2021/06/15 01:54:49;;;;;;;9.90;1.73;;;15.20;82.60;;;;;;5053219;28;20049;-75
2021/06/15 01:57:19;;;;;;;8.93;1.17;;;15.30;82.30;;;;;;5052688;28;20489;-75
2021/06/15 01:59:46;;;;;;;13.07;1.90;;;15.20;82.20;;;;;;5052531;28;20102;-75
2021/06/15 02:02:14;;;;;;;9.87;1.80;;;15.30;82.50;;;;;;5052835;28;20516;-75
2021/06/15 02:04:45;;;;;;;10.77;1.53;;;15.40;82.10;;;;;;5053058;28;20148;-76
2021/06/15 02:07:15;;;;;;;10.52;1.58;;;15.40;81.80;;;;;;5052823;28;20072;-76
2021/06/15 02:09:45;;;;;;;8.37;1.23;;;15.30;81.80;;;;;;5052689;28;20456;-76
2021/06/15 02:12:11;;;;;;;10.23;2.10;;;15.20;82.00;;;;;;5051895;28;20079;-75
2021/06/15 02:14:58;;;;;;;11.20;1.53;;;15.20;82.10;;;;;;5038230;28;20111;-75
2021/06/15 02:17:26;;;;;;;10.07;1.90;;;15.10;82.20;;;;;;5052799;28;20057;-75
2021/06/15 02:19:53;;;;;;;8.37;1.53;;;15.10;82.40;;;;;;5052274;28;20065;-75
2021/06/15 02:22:21;;;;;;;8.13;1.60;;;15.00;82.50;;;;;;5033730;28;20115;-75
2021/06/15 02:25:07;;;;;;;10.87;1.50;;;14.90;82.70;;;;;;5037626;28;20053;-75
2021/06/15 02:27:55;;;;;;;12.30;1.70;;;14.90;82.90;;;;;;5037138;28;20049;-75
2021/06/15 02:30:22;;;;;;;7.23;1.70;;;14.80;83.00;;;;;;5052005;28;20443;-75
2021/06/15 02:32:50;;;;;;;11.53;1.90;;;14.80;83.30;;;;;;5052422;28;20155;-76
2021/06/15 02:35:21;;;;;;;7.33;1.50;;;14.70;83.40;;;;;;5052144;28;20056;-75
2021/06/15 02:37:53;;;;;;;8.23;1.57;;;14.70;83.70;;;;;;5052454;28;20076;-76
2021/06/15 02:40:23;;;;;;;12.00;2.00;;;14.70;83.80;;;;;;5051542;28;20045;-75
2021/06/15 02:42:51;;;;;;;11.30;1.80;;;14.70;83.90;;;;;;5052276;28;20056;-76
2021/06/15 02:45:18;;;;;;;11.23;1.80;;;14.70;83.80;;;;;;5051916;28;20048;-75
2021/06/15 02:47:47;;;;;;;12.40;1.70;;;14.70;83.70;;;;;;5051803;28;20057;-75
2021/06/15 02:50:16;;;;;;;10.47;2.23;;;14.70;83.50;;;;;;5051845;28;20552;-76
2021/06/15 02:52:48;;;;;;;8.83;1.90;;;14.70;83.20;;;;;;5052279;28;20053;-76
2021/06/15 02:55:25;;;;;;;7.27;1.37;;;14.70;83.00;;;;;;5051077;28;20064;-75
2021/06/15 02:57:51;;;;;;;9.70;1.90;;;14.80;83.00;;;;;;5052068;28;20072;-75
2021/06/15 03:00:18;;;;;;;10.13;1.87;;;14.70;82.90;;;;;;5051860;28;20622;-75
2021/06/15 03:02:44;;;;;;;7.63;1.73;;;14.70;82.90;;;;;;5051380;28;20057;-75
2021/06/15 03:05:14;;;;;;;10.07;1.83;;;14.60;82.90;;;;;;5051600;28;20103;-75
2021/06/15 03:07:41;;;;;;;10.67;2.03;;;14.60;82.90;;;;;;5052225;28;20049;-76
2021/06/15 03:10:09;;;;;;;8.43;2.40;;;14.60;83.00;;;;;;5050643;28;20493;-75
2021/06/15 03:12:43;;;;;;;8.10;1.53;;;14.60;83.10;;;;;;5034357;28;20049;-74
2021/06/15 03:15:12;;;;;;;12.47;2.70;;;14.60;83.10;;;;;;5051052;28;20048;-74
2021/06/15 03:17:47;;;;;;;13.47;2.17;;;14.60;82.80;;;;;;5051771;28;20073;-75
2021/06/15 03:20:16;;;;;;;11.67;2.50;;;14.60;82.90;;;;;;5051452;28;20057;-75
2021/06/15 03:23:09;;;;;;;10.27;2.00;;;14.60;82.80;;;;;;5050760;28;20148;-74
2021/06/15 03:25:38;;;;;;;10.60;2.47;;;14.60;82.80;;;;;;5051602;28;20049;-74
2021/06/15 03:28:10;;;;;;;9.33;1.77;;;14.60;82.80;;;;;;5051415;28;20121;-75
2021/06/15 03:30:58;;;;;;;9.70;2.17;;;14.60;83.00;;;;;;5036022;28;20045;-74
2021/06/15 03:33:27;;;;;;;10.40;2.15;;;14.60;82.80;;;;;;5051284;28;20143;-74
2021/06/15 03:35:58;;;;;;;11.50;1.90;;;14.60;82.80;;;;;;5051712;28;20076;-74
2021/06/15 03:38:29;;;;;;;10.25;2.22;;;14.60;82.90;;;;;;5050674;28;20584;-73
2021/06/15 03:40:59;;;;;;;11.80;2.80;;;14.60;83.10;;;;;;5051463;28;20053;-74
2021/06/15 03:43:26;;;;;;;8.60;1.80;;;14.60;83.10;;;;;;5050518;28;20444;-73
2021/06/15 03:46:00;;;;;;;7.80;1.93;;;14.60;83.10;;;;;;5051772;28;20057;-74
2021/06/15 03:48:27;;;;;;;12.47;2.27;;;14.60;83.10;;;;;;5051340;28;20080;-74
2021/06/15 03:50:57;;;;;;;13.63;2.60;;;14.60;82.80;;;;;;5050685;28;20102;-74
2021/06/15 03:53:29;;;;;;;9.40;2.23;;;14.60;82.90;;;;;;5051354;28;20045;-74
2021/06/15 03:55:57;;;;;;;7.53;1.60;;;14.60;83.10;;;;;;5051123;28;20460;-74
2021/06/15 03:58:23;;;;;;;10.83;1.97;;;14.50;83.10;;;;;;5050081;28;20081;-74
2021/06/15 04:00:50;;;;;;;13.10;2.60;;;14.50;83.30;;;;;;5051373;28;20065;-74
2021/06/15 04:03:18;;;;;;;10.53;2.43;;;14.50;83.40;;;;;;5050980;28;20098;-73
2021/06/15 04:05:47;;;;;;;9.10;2.40;;;14.50;83.50;;;;;;5050204;28;20551;-74
2021/06/15 04:08:15;;;;;;;10.43;1.73;;;14.50;83.50;;;;;;5050973;28;20053;-74
2021/06/15 04:10:45;;;;;;;15.73;3.40;;;14.60;83.50;;;;;;5051069;28;20048;-74
2021/06/15 04:13:11;;;;;;;13.17;2.20;;;14.60;83.40;;;;;;5050126;28;20052;-73
2021/06/15 04:15:38;;;;;;;14.00;2.40;;;14.60;83.30;;;;;;5051184;28;20051;-74
2021/06/15 04:18:07;;;;;;;10.63;2.33;;;14.60;83.30;;;;;;5050581;28;20470;-73
2021/06/15 04:20:36;;;;;;;11.23;2.57;;;14.60;83.40;;;;;;5050294;28;20045;-74
2021/06/15 04:23:06;;;;;;;10.93;1.93;;;14.70;84.30;;;;;;5050668;28;20045;-73
2021/06/15 04:25:35;;;;;;;11.23;1.93;;;14.80;83.00;;;;;;5050299;28;20053;-74
2021/06/15 04:28:04;;;;;;;8.98;1.90;;;14.80;83.00;;;;;;5050850;28;20048;-73
2021/06/15 04:30:43;;;;;;;10.70;2.00;;;14.80;83.00;;;;;;5051180;28;20045;-73
2021/06/15 04:33:13;;;;;;;14.47;3.07;;;14.90;82.90;;;;;;5049801;28;20056;-73
2021/06/15 04:35:52;;;;;;;14.33;2.27;;;15.00;82.60;;;;;;5051017;28;20045;-74
2021/06/15 04:38:44;;;;;;;11.00;2.47;;;15.00;82.50;;;;;;5035869;28;20493;-74
2021/06/15 04:41:17;;;;;;;12.17;1.93;;;15.00;82.40;;;;;;5049918;28;20056;-74
2021/06/15 04:43:55;;;;;;;8.30;2.30;;;15.00;82.30;;;;;;5050905;28;20060;-72
2021/06/15 04:46:29;;;;;;;10.13;2.33;;;15.00;82.20;;;;;;5054357;28;20060;-73
2021/06/15 04:49:03;;;;;;;9.10;2.03;;;15.10;82.20;;;;;;5054615;28;20121;-72
2021/06/15 04:51:31;;;;;;;10.13;2.23;;;15.10;82.10;;;;;;5054174;28;20055;-73
2021/06/15 04:54:00;;;;;;;12.23;2.30;;;15.20;82.10;;;;;;5053814;28;20048;-73
2021/06/15 04:56:28;;;;;;;9.93;2.03;;;15.20;82.10;;;;;;5054175;28;20489;-73
2021/06/15 04:58:56;;;;;;;8.27;1.87;;;15.20;82.10;;;;;;5054464;28;20159;-74
2021/06/15 05:01:21;;;;;;;12.87;2.23;;;15.20;82.00;;;;;;5053633;28;20049;-73
2021/06/15 05:03:48;;;;;;;13.13;2.47;;;15.20;81.90;;;;;;5053698;28;20063;-73
2021/06/15 05:06:20;;;;;;;9.07;2.00;;;15.30;81.60;;;;;;5053797;28;20057;-73
2021/06/15 05:08:57;;;;;;;6.53;1.60;;;15.30;81.40;;;;;;5053269;28;20044;-73
2021/06/15 05:11:25;;;;;;;12.40;3.67;;;15.40;81.20;;;;;;5053942;28;20126;-72
2021/06/15 05:14:12;;;;;;;9.00;2.00;;;15.40;80.90;;;;;;5036274;28;20052;-73
2021/06/15 05:16:40;;;;;;;12.03;2.50;;;15.40;80.60;;;;;;5052863;28;20151;-73
2021/06/15 05:19:05;;;;;;;8.97;1.67;;;15.40;80.40;;;;;;5053066;28;20044;-74
2021/06/15 05:21:51;;;;;;;11.43;1.93;;;15.50;80.00;;;;;;5053597;28;20451;-73
2021/06/15 05:24:30;;;;;;;9.03;2.00;;;15.50;79.70;;;;;;5051749;28;20434;-74
2021/06/15 05:26:56;;;;;;;12.17;2.37;;;15.60;79.70;;;;;;5051804;28;20052;-73
2021/06/15 05:29:25;;;;;;;9.67;2.00;;;15.60;79.50;;;;;;5052687;28;20065;-75
2021/06/15 05:31:51;;;;;;;12.20;2.30;;;15.70;79.30;;;;;;5053362;28;20075;-74
2021/06/15 05:34:17;;;;;;;11.43;2.13;;;15.70;79.10;;;;;;5052216;28;20490;-74
2021/06/15 05:36:42;;;;;;;10.63;2.60;;;15.80;78.90;;;;;;5052904;28;20060;-76
2021/06/15 05:39:08;;;;;;;11.23;2.17;;;15.80;78.60;;;;;;5053190;28;20142;-74
2021/06/15 05:41:34;;;;;;;9.03;1.80;;;15.80;78.30;;;;;;5053522;28;20427;-73
2021/06/15 05:44:02;;;;;;;6.10;1.77;;;15.90;78.00;;;;;;5052142;28;20052;-74
2021/06/15 05:46:27;;;;;;;11.40;2.20;;;16.00;77.80;;;;;;5053070;28;20049;-74
2021/06/15 05:48:53;;;;;;;10.03;1.97;;;16.10;78.40;;;;;;5053046;28;20117;-76
2021/06/15 05:51:19;;;;;;;7.57;1.87;;;16.20;77.20;;;;;;5051929;28;20057;-75
2021/06/15 05:53:44;;;;;;;9.20;2.73;;;16.20;77.00;;;;;;5052831;28;20263;-76
2021/06/15 05:56:10;;;;;;;8.37;2.60;;;16.20;76.60;;;;;;5052241;28;20057;-74
2021/06/15 05:58:36;;;;;;;10.90;2.77;;;16.30;75.90;;;;;;5051888;28;20398;-74
2021/06/15 06:01:01;;;;;;;10.27;2.80;;;16.30;75.70;;;;;;5052334;28;20350;-73
2021/06/15 06:03:35;;;;;;;8.67;2.17;;;16.50;75.40;;;;;;5052658;28;20379;-73
2021/06/15 06:08:47;;;;;;;12.03;2.67;;;16.60;74.60;;;;;;5052546;28;20118;-75
2021/06/15 06:11:16;;;;;;;10.07;2.70;;;16.70;74.50;;;;;;5051456;28;20056;-76
2021/06/15 06:13:41;;;;;;;12.43;2.43;;;16.60;73.90;;;;;;5052717;28;20045;-75
2021/06/15 06:16:12;;;;;;;14.33;2.50;;;16.70;73.60;;;;;;5052495;28;20136;-74
2021/06/15 06:18:39;;;;;;;11.23;1.90;;;16.70;73.20;;;;;;5052240;28;20056;-78
2021/06/15 06:21:10;;;;;;;10.77;2.07;;;16.70;73.00;;;;;;5052574;28;20193;-76
2021/06/15 06:23:36;;;;;;;12.83;2.40;;;16.60;73.00;;;;;;5052521;28;20500;-76
2021/06/15 06:26:03;;;;;;;10.37;2.13;;;16.60;73.10;;;;;;5051607;28;20385;-76
2021/06/15 06:28:29;;;;;;;7.27;1.80;;;16.70;73.00;;;;;;5052898;28;20163;-76
2021/06/15 06:30:54;;;;;;;7.03;1.70;;;16.70;72.70;;;;;;5052942;28;20530;-77
2021/06/15 06:33:20;;;;;;;12.87;2.10;;;16.60;72.30;;;;;;5051475;28;20114;-76
2021/06/15 06:35:46;;;;;;;8.73;1.93;;;16.70;72.20;;;;;;5052358;28;20501;-76
2021/06/15 06:38:11;;;;;;;8.87;1.80;;;16.60;72.00;;;;;;5052179;28;20098;-77
2021/06/15 06:40:40;;;;;;;11.37;2.20;;;16.60;72.00;;;;;;5051579;28;20059;-75
2021/06/15 06:43:06;;;;;;;16.53;2.93;;;16.70;71.90;;;;;;5051811;28;20049;-75
2021/06/15 06:45:32;;;;;;;11.77;1.83;;;16.70;71.90;;;;;;5052760;28;20087;-75
2021/06/15 06:47:57;;;;;;;12.77;2.27;;;16.80;72.10;;;;;;5051301;28;20048;-75
2021/06/15 06:50:23;;;;;;;17.13;2.47;;;16.80;72.20;;;;;;5052095;28;20433;-75
2021/06/15 06:52:49;;;;;;;11.40;2.20;;;16.80;72.20;;;;;;5052006;28;20409;-75
2021/06/15 06:55:20;;;;;;;12.73;2.47;;;16.80;72.30;;;;;;5050943;28;20493;-75
2021/06/15 06:57:47;;;;;;;11.43;2.10;;;16.80;72.50;;;;;;5052194;28;20041;-76
2021/06/15 07:00:14;;;;;;;12.23;2.47;;;16.80;72.30;;;;;;5051367;28;20053;-77
2021/06/15 07:02:40;;;;;;;7.80;2.23;;;16.80;72.00;;;;;;5052277;28;20048;-75
2021/06/15 07:05:06;;;;;;;12.80;2.00;;;16.90;71.60;;;;;;5051925;28;20501;-75
2021/06/15 07:07:33;;;;;;;13.00;2.30;;;16.90;71.30;;;;;;5050677;28;20059;-76
2021/06/15 07:09:59;;;;;;;9.90;2.00;;;17.00;70.70;;;;;;5051686;28;20375;-75
2021/06/15 07:12:25;;;;;;;7.00;1.57;;;17.00;70.30;;;;;;5052153;28;20059;-76
2021/06/15 07:14:51;;;;;;;8.70;2.10;;;17.10;70.00;;;;;;5051041;28;20041;-75
2021/06/15 07:17:17;;;;;;;12.17;2.70;;;17.10;70.30;;;;;;5051582;28;20549;-74
2021/06/15 07:19:43;;;;;;;9.27;1.80;;;17.10;70.30;;;;;;5051530;28;20080;-75
2021/06/15 07:22:09;;;;;;;11.87;2.43;;;17.20;70.00;;;;;;5050456;28;20041;-75
2021/06/15 07:24:35;;;;;;;11.73;2.83;;;17.20;69.60;;;;;;5051726;28;20049;-77
2021/06/15 07:27:16;;;;;;;11.75;2.33;;;17.20;69.20;;;;;;5051440;28;20047;-77
2021/06/15 07:30:00;;;;;;;8.73;2.03;;;17.30;69.00;;;;;;5051321;28;20057;-75
2021/06/15 07:32:46;;;;;;;8.73;1.87;;;17.30;69.00;;;;;;5036554;28;20152;-75
2021/06/15 07:35:32;;;;;;;10.10;2.33;;;17.40;68.80;;;;;;5036121;28;20064;-75
2021/06/15 07:38:17;;;;;;;7.73;1.90;;;17.50;68.00;;;;;;5036432;28;20379;-75
2021/06/15 07:40:43;;;;;;;9.03;1.90;;;17.50;67.50;;;;;;5050852;28;20462;-76
2021/06/15 07:43:30;;;;;;;9.83;2.40;;;17.50;67.40;;;;;;5036242;28;20207;-75
2021/06/15 07:46:15;;;;;;;10.03;2.30;;;17.50;67.30;;;;;;5036849;28;20347;-73
2021/06/15 07:49:02;;;;;;;11.27;1.90;;;17.40;67.30;;;;;;5034209;28;20128;-76
2021/06/15 07:51:34;;;;;;;9.47;2.60;;;17.30;67.50;;;;;;5050101;28;20375;-73
2021/06/15 07:54:20;;;;;;;11.07;2.00;;;17.30;67.70;;;;;;5033654;28;20041;-73
2021/06/15 07:57:06;;;;;;;8.10;2.00;;;17.20;67.60;;;;;;5033809;28;20431;-74
2021/06/15 07:59:32;;;;;;;13.87;2.33;;;17.30;68.00;;;;;;5050183;28;20063;-73
2021/06/15 08:02:18;;;;;;;8.80;2.10;;;17.30;68.00;;;;;;5035011;28;20049;-75
2021/06/15 08:04:44;;;;;;;8.03;1.53;;;17.40;68.60;;;;;;5049823;28;20482;-75
2021/06/15 08:07:18;;;;;;;13.03;2.17;;;17.50;67.00;;;;;;5049861;28;20169;-73
2021/06/15 08:09:44;;;;;;;8.73;2.13;;;17.60;66.60;;;;;;5050017;28;20468;-75
2021/06/15 08:12:10;;;;;;;8.70;2.13;;;17.60;66.60;;;;;;5048969;28;20064;-74
2021/06/15 08:14:57;;;;;;;9.03;2.03;;;17.60;66.30;;;;;;5049986;28;20075;-72
2021/06/15 08:17:44;;;;;;;12.77;2.17;;;17.60;66.40;;;;;;5034228;28;20041;-72
2021/06/15 08:20:10;;;;;;;9.90;1.77;;;17.80;66.40;;;;;;5052166;28;20067;-72
2021/06/15 08:22:36;;;;;;;10.07;1.80;;;17.90;66.10;;;;;;5053689;28;20041;-74
2021/06/15 08:25:22;;;;;;;9.77;2.30;;;18.00;65.90;;;;;;5038227;28;20088;-76
2021/06/15 08:27:48;;;;;;;12.17;2.17;;;18.10;65.40;;;;;;5054473;28;20044;-74
2021/06/15 08:30:35;;;;;;;9.97;2.20;;;18.10;65.10;;;;;;5039663;28;20553;-76
2021/06/15 08:33:21;;;;;;;11.10;2.10;;;18.30;64.70;;;;;;5038860;28;20466;-79
2021/06/15 08:35:47;;;;;;;14.10;2.60;;;18.30;64.50;;;;;;5054654;28;20059;-74
2021/06/15 08:38:33;;;;;;;8.63;2.10;;;18.40;63.90;;;;;;5039441;28;20053;-75
2021/06/15 08:40:59;;;;;;;11.40;2.50;;;18.50;64.00;;;;;;5052621;28;20373;-75
2021/06/15 08:43:25;;;;;;;9.73;2.03;;;18.50;63.50;;;;;;5053912;28;20045;-75
2021/06/15 08:45:51;;;;;;;8.70;1.90;;;18.60;63.40;;;;;;5053148;28;20052;-74
2021/06/15 08:48:16;;;;;;;9.83;1.80;;;18.80;63.70;;;;;;5054281;28;20139;-73
2021/06/15 08:50:44;;;;;;;15.27;2.43;;;19.10;63.40;;;;;;5054208;28;20072;-72
2021/06/15 08:53:11;;;;;;;7.60;1.93;;;19.20;62.90;;;;;;5053162;28;20122;-74
2021/06/15 08:55:38;;;;;;;8.90;2.20;;;19.20;62.00;;;;;;5054449;28;20045;-74
2021/06/15 08:58:37;;;;;;;7.57;1.87;;;19.30;61.20;;;;;;5036142;28;20045;-75
2021/06/15 09:01:08;;;;;;;10.10;2.10;;;19.20;59.70;;;;;;5053711;28;20053;-75
2021/06/15 09:03:33;;;;;;;11.50;1.80;;;19.20;60.40;;;;;;5054402;28;20048;-74
2021/06/15 09:05:59;;;;;;;8.60;1.90;;;19.10;60.50;;;;;;5053667;28;20055;-73
2021/06/15 09:08:25;;;;;;;7.43;1.67;;;19.20;60.00;;;;;;5053435;28;20469;-74
2021/06/15 09:10:51;;;;;;;13.50;2.10;;;19.20;59.50;;;;;;5054238;28;20053;-78
2021/06/15 09:13:36;;;;;;;8.17;1.97;;;19.10;59.90;;;;;;5054322;28;20075;-75
2021/06/15 09:16:16;;;;;;;9.03;1.93;;;19.20;59.70;;;;;;5053361;28;20170;-75
2021/06/15 09:18:42;;;;;;;9.52;2.08;;;19.30;59.50;;;;;;5054308;28;20144;-74
2021/06/15 09:21:08;;;;;;;10.67;2.50;;;19.40;59.80;;;;;;5053310;28;20504;-79
2021/06/15 09:23:36;;;;;;;10.10;2.37;;;19.60;59.60;;;;;;5054279;28;20136;-75
2021/06/15 09:26:02;;;;;;;8.80;1.87;;;19.80;60.00;;;;;;5053691;28;20136;-74
2021/06/15 09:28:29;;;;;;;9.27;1.80;;;20.10;59.50;;;;;;5053431;28;20118;-74
2021/06/15 09:31:06;;;;;;;9.23;1.77;;;20.20;59.00;;;;;;5053266;28;20475;-74
2021/06/15 09:33:41;;;;;;;9.02;2.55;;;20.30;58.60;;;;;;5054024;28;20045;-73
2021/06/15 09:36:15;;;;;;;10.33;1.77;;;20.40;57.80;;;;;;5053163;28;20060;-78
2021/06/15 09:38:56;;;;;;;;;;;20.50;57.20;;;;;;5054139;28;20100;-74
2021/06/15 09:41:55;;;;;;;8.65;2.22;;;20.70;56.30;;;;;;5053479;28;19967;-72
2021/06/15 09:44:26;;;;;;;12.03;2.20;;;20.70;55.80;;;;;;5052823;28;20110;-74
2021/06/15 09:46:58;;;;;;;11.37;1.83;;;20.80;55.30;;;;;;5053503;28;20504;-75
2021/06/15 09:49:44;;;;;;;8.27;1.70;;;20.80;55.10;;;;;;5053211;28;20148;-78
2021/06/15 09:52:23;;;;;;;10.80;1.67;;;21.00;54.70;;;;;;5053273;28;20056;-75
2021/06/15 09:54:56;;;;;;;7.30;2.10;;;21.10;54.00;;;;;;5053491;28;20409;-75
2021/06/15 09:57:23;;;;;;;12.23;2.30;;;21.10;53.20;;;;;;5052791;28;20106;-78
2021/06/15 10:00:14;;;;;;;5.93;1.33;;;21.00;53.00;;;;;;5053414;28;20055;-76
2021/06/15 10:02:51;;;;;;;7.10;2.17;;;21.10;53.20;;;;;;5053439;28;20152;-74
2021/06/15 10:05:35;;;;;;;10.67;1.60;;;21.20;52.60;;;;;;5052488;28;20057;-76
2021/06/15 10:08:03;;;;;;;8.90;2.33;;;21.20;51.30;;;;;;5053341;28;20045;-77
2021/06/15 10:10:34;;;;;;;10.37;2.00;;;21.20;52.40;;;;;;5052551;28;20497;-77
2021/06/15 10:13:00;;;;;;;8.20;2.07;;;21.20;52.50;;;;;;5052958;28;20045;-77
2021/06/15 10:15:28;;;;;;;10.27;1.87;;;21.30;52.30;;;;;;5053384;28;20045;-75
2021/06/15 10:17:55;;;;;;;7.50;1.90;;;21.20;52.10;;;;;;5051412;28;20067;-76
2021/06/15 10:20:25;;;;;;;5.83;1.63;;;21.10;52.50;;;;;;5052467;28;20056;-76
2021/06/15 10:22:52;;;;;;;5.73;2.07;;;21.10;52.50;;;;;;5053110;28;20053;-74
2021/06/15 10:25:19;;;;;;;7.57;1.70;;;21.00;52.60;;;;;;5051873;28;20417;-75
2021/06/15 10:27:46;;;;;;;9.17;1.90;;;20.90;52.40;;;;;;5053061;28;20052;-76
2021/06/15 10:30:16;;;;;;;9.37;2.37;;;20.80;52.70;;;;;;5052822;28;20059;-75
2021/06/15 10:32:50;;;;;;;6.50;1.83;;;20.90;52.60;;;;;;5052301;28;20103;-74
2021/06/15 10:35:34;;;;;;;8.07;1.63;;;20.90;52.20;;;;;;5053081;28;20053;-75
2021/06/15 10:38:00;;;;;;;7.03;1.63;;;21.00;52.00;;;;;;5052135;28;20497;-76
2021/06/15 10:40:26;;;;;;;6.23;1.47;;;21.00;52.30;;;;;;5051659;28;20152;-75
2021/06/15 10:43:37;;;;;;;7.87;2.00;;;20.80;52.40;;;;;;5051308;28;20666;-73
2021/06/15 10:46:11;;;;;;;6.25;1.52;;;20.60;52.50;;;;;;5045635;28;20052;-73
2021/06/15 10:48:54;;;;;;;6.27;1.73;;;20.50;53.30;;;;;;5051368;28;20056;-74
2021/06/15 10:51:44;;;;;;;6.50;1.60;;;20.60;53.30;;;;;;5050646;28;20417;-75
2021/06/15 10:54:30;;;;;;;8.23;1.70;;;20.70;53.60;;;;;;5049311;28;20135;-76
2021/06/15 10:57:24;;;;;;;7.53;1.57;;;20.90;53.30;;;;;;5052583;28;20045;-75
2021/06/15 11:00:08;;;;;;;6.93;2.17;;;20.80;52.40;;;;;;5051827;28;20075;-79
2021/06/15 11:02:38;;;;;;;8.57;1.87;;;20.80;53.30;;;;;;5052697;28;20095;-75
2021/06/15 11:05:39;;;;;;;10.93;2.53;;;20.70;53.30;;;;;;5052100;28;20049;-74
2021/06/15 11:08:18;;;;;;;9.47;1.73;;;20.80;53.10;;;;;;5032825;28;20055;-75
2021/06/15 11:10:50;;;;;;;7.60;1.97;;;20.80;53.10;;;;;;5049782;28;20140;-76
2021/06/15 11:13:16;;;;;;;8.83;2.10;;;20.90;52.80;;;;;;5049626;28;20555;-74
2021/06/15 11:15:56;;;;;;;10.30;2.10;;;20.90;52.50;;;;;;5050028;28;20116;-74
2021/06/15 11:18:22;;;;;;;11.37;1.97;;;21.00;52.30;;;;;;5050257;28;20056;-75
2021/06/15 11:20:48;;;;;;;10.10;1.90;;;21.10;52.50;;;;;;5049567;28;20103;-75
2021/06/15 11:23:15;;;;;;;6.30;1.80;;;21.00;52.60;;;;;;5049435;28;20056;-75
2021/06/15 11:25:46;;;;;;;9.57;1.80;;;20.90;52.80;;;;;;5051437;28;20482;-75
2021/06/15 11:28:46;;;;;;;8.37;1.70;;;20.90;53.00;;;;;;5050788;28;20494;-74
2021/06/15 11:31:28;;;;;;;6.50;1.50;;;21.00;52.90;;;;;;5051792;28;20132;-75
2021/06/15 11:34:14;;;;;;;8.82;1.52;;;21.20;52.40;;;;;;5051703;28;20139;-77
2021/06/15 11:36:42;;;;;;;5.53;1.30;;;21.30;51.80;;;;;;5051140;28;20059;-76
2021/06/15 11:39:27;;;;;;;8.53;1.70;;;21.40;51.50;;;;;;5052115;28;20049;-77
2021/06/15 11:42:20;;;;;;;6.07;1.60;;;21.40;51.10;;;;;;5050989;28;20053;-76
2021/06/15 11:44:56;;;;;;;8.33;1.73;;;21.20;51.20;;;;;;5051735;28;20068;-75
2021/06/15 11:47:41;;;;;;;7.87;1.63;;;20.90;52.00;;;;;;5051494;28;20048;-75
2021/06/15 11:50:13;;;;;;;5.43;1.57;;;20.70;52.60;;;;;;5050516;28;20106;-75
2021/06/15 11:52:44;;;;;;;5.60;1.53;;;20.80;52.50;;;;;;5051695;28;20049;-75
2021/06/15 11:55:11;;;;;;;5.80;1.90;;;20.90;52.50;;;;;;5033263;28;20072;-76
2021/06/15 11:57:38;;;;;;;5.33;2.10;;;21.10;52.30;;;;;;5050560;28;20053;-75
2021/06/15 12:00:13;;;;;;;5.40;1.57;;;21.30;52.00;;;;;;5051150;28;20049;-76
2021/06/15 12:02:38;;;;;;;9.63;1.60;;;21.30;52.20;;;;;;5051066;28;20045;-80
2021/06/15 12:05:16;;;;;;;8.70;2.43;;;21.10;52.70;;;;;;5050651;28;20060;-74
2021/06/15 12:07:51;;;;;;;8.70;1.80;;;21.00;53.30;;;;;;5051517;28;20428;-76
2021/06/15 12:10:20;;;;;;;7.77;1.87;;;21.00;53.20;;;;;;5050414;28;20083;-78
2021/06/15 12:13:02;;;;;;;8.97;1.70;;;21.10;53.20;;;;;;5051054;28;20073;-74
2021/06/15 12:15:45;;;;;;;7.03;1.67;;;21.30;53.00;;;;;;5051490;28;20128;-79
2021/06/15 12:18:32;;;;;;;6.07;1.80;;;21.40;52.00;;;;;;5050264;28;20041;-75
2021/06/15 12:21:00;;;;;;;7.90;1.60;;;21.60;51.70;;;;;;5049006;28;20064;-76
2021/06/15 12:24:03;;;;;;;5.20;1.50;;;21.50;51.50;;;;;;5049942;28;20045;-76
2021/06/15 12:26:35;;;;;;;6.00;1.63;;;21.30;51.70;;;;;;5006217;28;20053;-75
2021/06/15 12:29:13;;;;;;;8.87;1.90;;;21.10;52.20;;;;;;5049107;28;20045;-75
2021/06/15 12:31:41;;;;;;;9.53;1.83;;;20.90;53.00;;;;;;5049162;28;20152;-76
2021/06/15 12:34:18;;;;;;;6.77;1.60;;;20.80;52.90;;;;;;5049605;28;20057;-75
2021/06/15 12:36:50;;;;;;;7.83;1.80;;;20.80;53.40;;;;;;5051026;28;20079;-76
2021/06/15 12:39:25;;;;;;;6.67;1.87;;;20.80;53.50;;;;;;5050087;28;20049;-76
2021/06/15 12:41:58;;;;;;;6.70;1.50;;;20.90;53.40;;;;;;5051023;28;20056;-75
2021/06/15 12:44:31;;;;;;;11.67;2.60;;;21.00;52.60;;;;;;5050833;28;20060;-76
2021/06/15 12:47:16;;;;;;;6.70;1.80;;;20.90;52.80;;;;;;5050232;28;20048;-76
2021/06/15 12:49:53;;;;;;;4.97;2.00;;;21.00;53.40;;;;;;5050958;28;20059;-77
2021/06/15 12:52:19;;;;;;;7.73;1.70;;;21.10;53.20;;;;;;5049720;28;20049;-77
2021/06/15 12:54:47;;;;;;;8.17;1.80;;;21.10;53.40;;;;;;5050602;28;20053;-75
2021/06/15 12:57:15;;;;;;;5.23;1.60;;;21.10;52.50;;;;;;5050397;28;20083;-76
2021/06/15 12:59:42;;;;;;;7.27;2.03;;;20.90;53.00;;;;;;5050006;28;20064;-76
2021/06/15 13:02:12;;;;;;;5.37;1.70;;;20.90;53.10;;;;;;5050583;28;20077;-76
2021/06/15 13:04:55;;;;;;;7.70;2.00;;;21.00;52.60;;;;;;5050859;28;20067;-76
2021/06/15 13:07:22;;;;;;;4.53;1.40;;;21.00;52.30;;;;;;5053709;28;20044;-76
2021/06/15 13:09:48;;;;;;;6.83;1.70;;;21.20;52.30;;;;;;5054723;28;20063;-80
2021/06/15 13:12:19;;;;;;;6.47;1.70;;;21.40;52.00;;;;;;5054276;28;20049;-76